Time;durP1;ratioP1;P1;durP2;ratioP2;P2;SDS_P1;SDS_P2;PMS_P1;PMS_P2;Temp;Humidity;BMP_temperature;BMP_pressure;BME280_temperature;BME280_humidity;BME280_pressure;Samples;Min_cycle;Max_cycle;Signal;HPM_P1;HPM_P2
2021/04/02 00:00:52;;;;;;;;;13.50;13.50;;;;;30.75;48.12;98466.16;6304094;22;8887;-73
2021/04/02 00:03:23;;;;;;;;;12.50;12.50;;;;;30.76;48.10;98473.16;6305437;22;8808;-75
2021/04/02 00:05:52;;;;;;;;;14.50;14.50;;;;;30.75;47.86;98469.66;6304507;22;8846;-74
2021/04/02 00:08:21;;;;;;;;;13.00;13.00;;;;;30.77;48.58;98472.75;6304505;22;8798;-75
2021/04/02 00:10:54;;;;;;;;;11.00;11.00;;;;;30.81;47.22;98475.44;6304473;22;8810;-74
2021/04/02 00:13:29;;;;;;;;;13.25;13.25;;;;;30.79;47.57;98481.28;6303570;22;8814;-74
2021/04/02 00:15:58;;;;;;;;;11.00;11.00;;;;;30.81;47.33;98478.16;6302152;22;8787;-72
2021/04/02 00:18:29;;;;;;;;;12.00;12.00;;;;;30.79;47.73;98484.00;6302237;22;9577;-73
2021/04/02 00:20:59;;;;;;;;;14.50;14.50;;;;;30.82;47.84;98482.41;6302098;22;8795;-72
2021/04/02 00:23:28;;;;;;;;;14.50;14.25;;;;;30.83;47.79;98497.56;6302740;22;8798;-74
2021/04/02 00:25:57;;;;;;;;;14.75;14.75;;;;;30.85;47.50;98491.72;6305805;22;8791;-73
2021/04/02 00:28:25;;;;;;;;;15.25;15.25;;;;;30.87;47.11;98487.41;6306649;22;9519;-72
2021/04/02 00:30:57;;;;;;;;;13.00;13.00;;;;;30.86;47.36;98494.03;6305868;22;8795;-74
2021/04/02 00:33:28;;;;;;;;;13.75;13.75;;;;;30.89;47.34;98498.66;6305551;22;9521;-74
2021/04/02 00:35:58;;;;;;;;;12.75;12.75;;;;;30.89;47.65;98500.63;6303815;22;8825;-74
2021/04/02 00:38:27;;;;;;;;;11.25;11.25;;;;;30.85;47.79;98494.44;6273061;22;8806;-74
2021/04/02 00:40:56;;;;;;;;;9.75;9.75;;;;;30.91;47.79;98509.16;6273248;22;8822;-74
2021/04/02 00:43:32;;;;;;;;;4.00;4.00;;;;;30.90;46.99;98508.38;6274405;22;8798;-73
2021/04/02 00:46:01;;;;;;;;;9.75;9.25;;;;;30.92;47.48;98521.59;6273618;22;8795;-73
2021/04/02 00:48:30;;;;;;;;;9.75;9.75;;;;;30.88;47.45;98516.19;6273166;22;8791;-73
2021/04/02 00:51:09;;;;;;;;;11.25;11.00;;;;;30.90;47.46;98524.72;6269508;22;9916;-72
2021/04/02 00:53:41;;;;;;;;;12.75;12.50;;;;;30.97;47.37;98524.63;6271074;22;8815;-73
2021/04/02 00:56:11;;;;;;;;;12.00;12.00;;;;;30.98;47.74;98531.63;6270575;22;8818;-73
2021/04/02 00:58:40;;;;;;;;;10.75;10.75;;;;;31.00;47.08;98542.88;6271704;22;8884;-75
2021/04/02 01:01:10;;;;;;;;;12.75;12.75;;;;;30.99;46.96;98538.63;6270521;22;8894;-75
2021/04/02 01:03:40;;;;;;;;;10.50;10.50;;;;;31.00;47.42;98540.16;6270605;22;8907;-74
2021/04/02 01:06:14;;;;;;;;;9.75;9.75;;;;;31.04;47.23;98543.63;6271182;22;8831;-73
2021/04/02 01:08:46;;;;;;;;;10.75;10.75;;;;;31.02;46.72;98548.69;6272020;22;8814;-73
2021/04/02 01:11:19;;;;;;;;;11.25;11.25;;;;;31.07;47.46;98555.66;6244756;22;9632;-74
2021/04/02 01:13:51;;;;;;;;;13.00;13.00;;;;;31.06;47.00;98556.84;6271353;22;8803;-75
2021/04/02 01:16:23;;;;;;;;;13.00;13.00;;;;;31.09;47.33;98564.97;6244208;22;8836;-75
2021/04/02 01:19:06;;;;;;;;;12.50;11.50;;;;;31.12;47.12;98566.09;6267523;22;8807;-73
2021/04/02 01:21:36;;;;;;;;;12.00;12.00;;;;;31.11;47.40;98568.06;6272965;22;8815;-74
2021/04/02 01:24:14;;;;;;;;;12.00;12.00;;;;;31.13;47.08;98571.16;6272806;22;8884;-75
2021/04/02 01:27:04;;;;;;;;;12.00;11.50;;;;;31.14;47.41;98580.88;6247175;22;8810;-73
2021/04/02 01:29:54;;;;;;;;;11.75;11.75;;;;;31.17;47.51;98576.56;6274662;22;9586;-70
2021/04/02 01:32:26;;;;;;;;;15.00;15.00;;;;;31.19;47.78;98582.38;6272658;22;8795;-75
2021/04/02 01:35:00;;;;;;;;;10.00;10.00;;;;;31.20;47.41;98577.72;6274333;22;8815;-75
2021/04/02 01:37:37;;;;;;;;;7.00;7.00;;;;;31.24;47.33;98590.09;6293293;22;9555;-76
2021/04/02 01:40:09;;;;;;;;;16.00;15.00;;;;;31.26;46.29;98592.41;6306085;22;8814;-75
2021/04/02 01:42:41;;;;;;;;;13.00;13.00;;;;;31.28;47.08;98592.75;6305364;22;8795;-78
2021/04/02 01:45:13;;;;;;;;;14.00;13.50;;;;;31.29;46.86;98591.59;6332598;22;8842;-76
2021/04/02 01:47:41;;;;;;;;;12.50;12.50;;;;;31.30;47.22;98601.31;6307081;22;8791;-76
2021/04/02 01:50:14;;;;;;;;;13.50;13.00;;;;;31.28;47.57;98579.13;6309221;22;8811;-76
2021/04/02 01:52:45;;;;;;;;;12.75;12.75;;;;;31.37;46.27;98599.25;6313071;22;8799;-76
2021/04/02 01:55:17;;;;;;;;;13.25;13.25;;;;;31.33;46.81;98592.31;6306093;22;8787;-75
2021/04/02 01:57:47;;;;;;;;;17.00;17.00;;;;;31.38;46.78;98589.13;6303738;22;8827;-75
2021/04/02 02:00:31;;;;;;;;;14.00;14.00;;;;;31.38;46.83;98589.13;6304316;22;8829;-74
2021/04/02 02:03:04;;;;;;;;;14.50;14.25;;;;;31.40;46.96;98612.06;6308918;22;8825;-78
2021/04/02 02:05:35;;;;;;;;;14.25;14.25;;;;;31.38;47.06;98598.06;6306262;22;8937;-75
2021/04/02 02:08:07;;;;;;;;;12.75;12.75;;;;;31.43;47.28;98605.81;6303804;22;8906;-76
2021/04/02 02:10:38;;;;;;;;;13.75;13.75;;;;;31.45;47.79;98608.88;6306125;22;8803;-76
2021/04/02 02:13:08;;;;;;;;;13.25;13.25;;;;;31.46;47.86;98610.44;6306976;22;9505;-76
2021/04/02 02:15:38;;;;;;;;;16.75;16.75;;;;;31.51;47.56;98622.84;6306698;22;8853;-77
2021/04/02 02:18:15;;;;;;;;;17.00;16.50;;;;;31.52;47.39;98618.94;6305576;22;8799;-74
2021/04/02 02:20:45;;;;;;;;;10.75;10.75;;;;;31.53;47.04;98622.44;6303495;22;8844;-74
2021/04/02 02:23:14;;;;;;;;;18.00;18.00;;;;;31.53;46.87;98623.19;6306418;22;8803;-75
2021/04/02 02:25:43;;;;;;;;;16.50;16.50;;;;;31.55;47.08;98628.25;6305113;22;8884;-74
2021/04/02 02:28:11;;;;;;;;;16.50;16.50;;;;;31.57;47.22;98634.06;6304999;22;8795;-75
2021/04/02 02:30:40;;;;;;;;;14.50;14.50;;;;;31.59;47.77;98627.00;6303721;22;8795;-74
2021/04/02 02:33:10;;;;;;;;;15.00;15.00;;;;;31.59;48.17;98626.25;6305291;22;8866;-74
2021/04/02 02:35:39;;;;;;;;;11.50;11.50;;;;;31.65;47.11;98627.34;6306265;22;8892;-77
2021/04/02 02:38:09;;;;;;;;;12.75;12.75;;;;;31.67;47.27;98623.00;6306530;22;8807;-77
2021/04/02 02:40:38;;;;;;;;;12.00;10.50;;;;;31.70;46.67;98630.41;6307934;22;8878;-76
2021/04/02 02:43:07;;;;;;;;;2.50;2.00;;;;;31.74;46.73;98633.84;6305742;22;8807;-75
2021/04/02 02:45:35;;;;;;;;;15.75;15.75;;;;;31.77;47.82;98633.03;6306777;22;8823;-74
2021/04/02 02:48:06;;;;;;;;;12.50;12.50;;;;;31.77;47.31;98627.56;6303206;22;8822;-74
2021/04/02 02:50:37;;;;;;;;;14.50;14.50;;;;;31.82;47.80;98622.84;6304429;22;8787;-75
2021/04/02 02:53:08;;;;;;;;;15.75;15.75;;;;;31.85;46.53;98617.34;6303540;22;8799;-75
2021/04/02 02:55:39;;;;;;;;;14.25;14.00;;;;;31.89;47.08;98623.50;6304947;22;9536;-74
2021/04/02 02:58:09;;;;;;;;;16.50;16.50;;;;;31.90;47.37;98622.31;6304664;22;8912;-75
2021/04/02 03:00:43;;;;;;;;;15.25;15.25;;;;;31.93;47.42;98624.22;6304857;22;8795;-74
2021/04/02 03:03:19;;;;;;;;;12.75;12.75;;;;;31.96;46.76;98628.09;6328004;22;8799;-73
2021/04/02 03:05:50;;;;;;;;;16.50;16.50;;;;;31.98;47.59;98621.03;6308899;22;8896;-73
2021/04/02 03:08:23;;;;;;;;;16.50;16.25;;;;;32.00;47.80;98617.91;6303645;22;8811;-75
2021/04/02 03:10:54;;;;;;;;;14.75;14.75;;;;;31.99;47.42;98616.34;6304455;22;8791;-74
2021/04/02 03:13:24;;;;;;;;;17.50;17.50;;;;;32.08;47.58;98622.06;6306408;22;9528;-74
2021/04/02 03:15:58;;;;;;;;;16.00;16.00;;;;;32.13;47.42;98616.13;6304695;22;8819;-75
2021/04/02 03:18:33;;;;;;;;;15.00;15.00;;;;;32.18;47.32;98614.88;6304755;22;8833;-75
2021/04/02 03:21:03;;;;;;;;;21.25;19.25;;;;;32.19;47.50;98608.25;6304664;22;8796;-75
2021/04/02 03:23:31;;;;;;;;;16.25;16.25;;;;;32.28;46.28;98616.72;6304301;22;8835;-75
2021/04/02 03:26:00;;;;;;;;;14.50;14.50;;;;;32.31;47.83;98611.19;6303067;22;8807;-74
2021/04/02 03:28:32;;;;;;;;;12.50;12.50;;;;;32.35;48.02;98606.44;6304377;22;8835;-76
2021/04/02 03:31:02;;;;;;;;;12.75;12.75;;;;;32.39;47.18;98596.22;6304162;22;8787;-73
2021/04/02 03:33:35;;;;;;;;;12.75;12.75;;;;;32.45;47.15;98601.97;6304741;22;8803;-74
2021/04/02 03:36:08;;;;;;;;;9.50;9.50;;;;;32.54;46.99;98602.19;6304259;22;8875;-73
2021/04/02 03:38:40;;;;;;;;;11.75;11.75;;;;;32.55;46.60;98590.06;6304850;22;8901;-75
2021/04/02 03:41:13;;;;;;;;;13.50;13.50;;;;;32.64;46.41;98598.50;6305999;22;8840;-74
2021/04/02 03:43:45;;;;;;;;;12.00;12.00;;;;;32.66;46.55;98593.38;6307360;22;8868;-73
2021/04/02 03:46:15;;;;;;;;;16.50;14.25;;;;;32.71;45.97;98586.66;6308766;22;8791;-72
2021/04/02 03:48:45;;;;;;;;;13.75;13.75;;;;;32.74;47.25;98594.03;6308139;22;8809;-73
2021/04/02 03:51:19;;;;;;;;;12.25;12.25;;;;;32.77;46.86;98587.75;6308196;22;8815;-73
2021/04/02 03:53:53;;;;;;;;;12.25;12.25;;;;;32.82;46.50;98589.22;6307555;22;8909;-73
2021/04/02 03:56:29;;;;;;;;;12.00;12.00;;;;;32.87;46.72;98589.50;6305507;22;8888;-75
2021/04/02 03:58:59;;;;;;;;;15.00;14.50;;;;;32.90;45.47;98577.75;6305673;22;8842;-75
2021/04/02 04:01:38;;;;;;;;;11.25;11.25;;;;;32.98;45.22;98573.69;6304474;22;8884;-77
2021/04/02 04:04:07;;;;;;;;;10.00;10.00;;;;;33.06;45.03;98566.88;6307051;22;8999;-76
2021/04/02 04:06:37;;;;;;;;;9.00;9.00;;;;;33.13;44.99;98568.69;6307466;22;8826;-73
2021/04/02 04:09:11;;;;;;;;;15.75;15.25;;;;;33.20;45.10;98562.31;6305277;22;8806;-72
2021/04/02 04:11:41;;;;;;;;;14.25;14.25;;;;;33.25;44.63;98557.13;6305050;22;8783;-74
2021/04/02 04:14:12;;;;;;;;;9.00;9.00;;;;;33.33;44.13;98553.06;6303889;22;8850;-74
2021/04/02 04:16:42;;;;;;;;;16.75;16.75;;;;;33.43;44.12;98554.03;6302669;22;8804;-74
2021/04/02 04:19:15;;;;;;;;;11.00;11.00;;;;;33.51;44.66;98549.16;6303714;22;8875;-74
2021/04/02 04:21:46;;;;;;;;;11.00;11.00;;;;;33.65;44.53;98555.09;6305221;22;8799;-74
2021/04/02 04:24:18;;;;;;;;;10.50;10.50;;;;;33.76;43.59;98540.38;6304314;22;8825;-74
2021/04/02 04:26:51;;;;;;;;;11.00;11.00;;;;;33.87;42.77;98536.19;6304393;22;8815;-73
2021/04/02 04:29:27;;;;;;;;;8.00;8.00;;;;;33.97;41.96;98539.88;6303408;22;8810;-73
2021/04/02 04:32:00;;;;;;;;;11.75;11.00;;;;;33.98;42.24;98523.03;6302885;22;8798;-75
2021/04/02 04:34:31;;;;;;;;;10.75;8.00;;;;;34.14;42.02;98535.94;6302130;22;8833;-75
2021/04/02 04:37:02;;;;;;;;;10.75;10.75;;;;;34.18;41.51;98524.88;6303714;22;8880;-74
2021/04/02 04:39:32;;;;;;;;;12.25;10.25;;;;;34.27;41.04;98528.53;6304240;22;8791;-74
2021/04/02 04:42:03;;;;;;;;;13.25;13.25;;;;;34.36;41.72;98530.69;6302521;22;8830;-76
2021/04/02 04:44:34;;;;;;;;;3.00;3.00;;;;;34.39;41.30;98516.13;6304319;22;8865;-78
2021/04/02 04:47:02;;;;;;;;;9.50;9.50;;;;;34.49;41.35;98517.81;6304211;22;8919;-77
2021/04/02 04:49:31;;;;;;;;;24.50;24.50;;;;;34.57;40.71;98510.94;6305375;22;8791;-77
2021/04/02 04:52:01;;;;;;;;;10.25;10.25;;;;;34.67;41.43;98509.88;6305665;22;8929;-78
2021/04/02 04:54:33;;;;;;;;;14.25;14.25;;;;;34.74;41.75;98500.69;6307118;22;8783;-77
2021/04/02 04:57:02;;;;;;;;;10.50;10.50;;;;;34.76;40.85;98487.34;6305440;22;8867;-79
2021/04/02 04:59:33;;;;;;;;;14.50;14.25;;;;;34.84;40.53;98487.94;6328677;22;8795;-79
2021/04/02 05:02:03;;;;;;;;;10.50;10.50;;;;;34.91;40.58;98485.75;6304013;22;8787;-81
2021/04/02 05:04:33;;;;;;;;;11.00;11.00;;;;;34.96;39.81;98481.69;6305378;22;8799;-79
2021/04/02 05:07:02;;;;;;;;;12.50;12.50;;;;;34.99;40.46;98467.13;6302796;22;9528;-76
2021/04/02 05:09:32;;;;;;;;;9.25;9.25;;;;;35.04;40.39;98460.31;6302381;22;8827;-76
2021/04/02 05:12:04;;;;;;;;;11.25;11.25;;;;;35.10;40.82;98456.59;6304262;22;8803;-76
2021/04/02 05:14:37;;;;;;;;;11.00;11.00;;;;;35.16;39.73;98462.28;6301310;22;8776;-77
2021/04/02 05:17:06;;;;;;;;;13.50;13.50;;;;;35.21;40.14;98453.50;6299254;22;8814;-78
2021/04/02 05:19:36;;;;;;;;;10.00;10.00;;;;;35.25;39.94;98451.41;6299145;22;8921;-76
2021/04/02 05:22:06;;;;;;;;;14.25;14.25;;;;;35.24;40.18;98439.69;6299457;22;9874;-75
2021/04/02 05:24:34;;;;;;;;;13.80;13.80;;;;;35.31;39.20;98433.22;6300043;22;8903;-79
2021/04/02 05:27:03;;;;;;;;;9.00;9.00;;;;;35.35;39.98;98422.91;6300775;22;8815;-77
2021/04/02 05:29:31;;;;;;;;;12.00;12.00;;;;;35.40;40.76;98419.63;6299891;22;8807;-76
2021/04/02 05:32:00;;;;;;;;;14.20;12.60;;;;;35.42;40.73;98411.72;6300298;22;8795;-75
2021/04/02 05:34:29;;;;;;;;;10.80;10.80;;;;;35.43;39.22;98404.25;6325120;22;8823;-74
2021/04/02 05:36:57;;;;;;;;;11.40;11.40;;;;;35.46;40.04;98404.13;6301563;22;8834;-75
2021/04/02 05:39:26;;;;;;;;;11.60;11.60;;;;;35.55;39.19;98403.44;6302598;22;8841;-75
2021/04/02 05:42:01;;;;;;;;;11.80;11.80;;;;;35.60;40.14;98389.19;6302065;22;8830;-74
2021/04/02 05:44:36;;;;;;;;;12.60;12.60;;;;;35.58;39.05;98378.66;6300869;22;8941;-75
2021/04/02 05:47:07;;;;;;;;;12.60;12.60;;;;;35.67;39.16;98382.69;6301749;22;8815;-76
2021/04/02 05:49:36;;;;;;;;;7.00;7.00;;;;;35.65;39.61;98380.38;6302608;22;8898;-76
2021/04/02 05:52:06;;;;;;;;;13.20;12.40;;;;;35.62;39.51;98365.56;6300916;22;8811;-71
2021/04/02 05:54:38;;;;;;;;;14.25;14.25;;;;;35.73;38.53;98372.66;6303228;22;9507;-72
2021/04/02 05:57:08;;;;;;;;;13.00;13.00;;;;;35.81;39.64;98363.78;6302522;22;8795;-75
2021/04/02 05:59:38;;;;;;;;;6.50;6.50;;;;;35.90;38.91;98366.59;6297098;22;8799;-75
2021/04/02 06:02:13;;;;;;;;;15.40;15.40;;;;;35.92;38.81;98360.66;6300744;22;8807;-76
2021/04/02 06:04:42;;;;;;;;;14.60;14.60;;;;;35.99;38.17;98357.66;6300847;22;8926;-75
2021/04/02 06:07:10;;;;;;;;;17.00;17.00;;;;;36.08;37.80;98354.97;6300437;22;8811;-74
2021/04/02 06:09:38;;;;;;;;;13.40;13.40;;;;;36.18;36.90;98353.81;6324335;22;9555;-74
2021/04/02 06:12:08;;;;;;;;;15.40;15.40;;;;;36.28;38.32;98342.91;6326247;22;9540;-74
2021/04/02 06:14:36;;;;;;;;;13.20;13.20;;;;;36.34;37.99;98341.88;6305049;22;8799;-77
2021/04/02 06:17:04;;;;;;;;;13.80;13.80;;;;;36.38;37.21;98331.53;6329045;22;8829;-76
2021/04/02 06:19:32;;;;;;;;;13.20;13.20;;;;;36.46;37.69;98332.75;6304563;22;8903;-74
2021/04/02 06:22:01;;;;;;;;;16.00;16.00;;;;;36.45;37.37;98316.72;6302909;22;8865;-74
2021/04/02 06:24:38;;;;;;;;;12.20;12.20;;;;;36.56;36.90;98325.31;6305674;22;8819;-74
2021/04/02 06:27:14;;;;;;;;;14.40;14.40;;;;;36.59;36.58;98316.19;6305587;22;8795;-74
2021/04/02 06:29:44;;;;;;;;;12.80;12.60;;;;;36.60;36.63;98303.97;6304498;22;8799;-74
2021/04/02 06:32:15;;;;;;;;;11.00;11.00;;;;;36.68;36.91;98299.72;6303564;22;8795;-74
2021/04/02 06:34:50;;;;;;;;;14.20;14.20;;;;;36.74;37.28;98289.66;6303198;22;8880;-76
2021/04/02 06:37:19;;;;;;;;;13.00;13.00;;;;;36.80;37.21;98285.13;6304693;22;8807;-77
2021/04/02 06:39:52;;;;;;;;;10.60;10.60;;;;;36.77;37.09;98274.28;6305434;22;8814;-76
2021/04/02 06:42:33;;;;;;;;;13.20;13.20;;;;;36.79;36.83;98275.34;6305203;22;8787;-74
2021/04/02 06:45:07;;;;;;;;;12.20;12.20;;;;;36.81;37.00;98274.91;6305555;22;8791;-78
2021/04/02 06:47:37;;;;;;;;;14.60;14.60;;;;;36.78;38.08;98262.06;6329604;22;8868;-78
2021/04/02 06:50:25;;;;;;;;;13.20;13.20;;;;;36.91;36.19;98262.69;6328343;22;8799;-76
2021/04/02 06:52:55;;;;;;;;;14.80;13.80;;;;;37.02;38.85;98256.75;6303335;22;8811;-76
2021/04/02 06:55:26;;;;;;;;;12.60;12.60;;;;;37.00;35.43;98253.69;6327057;22;8787;-75
2021/04/02 06:57:56;;;;;;;;;10.80;10.80;;;;;37.01;35.37;98245.00;6303324;22;8894;-76
2021/04/02 07:00:26;;;;;;;;;11.00;10.80;;;;;37.01;34.97;98235.97;6307242;22;8787;-76
2021/04/02 07:02:55;;;;;;;;;14.60;13.60;;;;;37.06;36.45;98221.63;6304881;22;8811;-77
2021/04/02 07:05:25;;;;;;;;;10.60;10.60;;;;;37.14;35.39;98226.38;6302127;22;8791;-74
2021/04/02 07:08:07;;;;;;;;;8.60;8.60;;;;;37.24;37.11;98229.91;6303340;22;8818;-77
2021/04/02 07:10:37;;;;;;;;;10.20;10.20;;;;;37.28;35.79;98214.00;6304678;22;8802;-76
2021/04/02 07:13:09;;;;;;;;;9.40;9.40;;;;;37.31;34.64;98224.09;6303899;22;9524;-74
2021/04/02 07:15:39;;;;;;;;;9.20;9.20;;;;;37.33;36.07;98212.63;6305641;22;8787;-79
2021/04/02 07:18:11;;;;;;;;;10.80;10.80;;;;;37.30;36.76;98203.31;6304363;22;8814;-79
2021/04/02 07:20:40;;;;;;;;;9.20;9.20;;;;;37.38;36.85;98204.53;6302899;22;8803;-79
2021/04/02 07:23:10;;;;;;;;;10.00;10.00;;;;;37.38;35.51;98192.75;6304803;22;8822;-79
2021/04/02 07:25:38;;;;;;;;;10.80;10.80;;;;;37.42;35.79;98188.63;6304658;22;8775;-78
2021/04/02 07:28:08;;;;;;;;;10.00;10.00;;;;;37.51;35.19;98183.13;6305026;22;8787;-78
2021/04/02 07:30:37;;;;;;;;;7.40;7.40;;;;;37.51;35.02;98172.09;6303864;22;8806;-79
2021/04/02 07:33:11;;;;;;;;;13.60;12.00;;;;;37.48;34.92;98156.53;6307506;22;8775;-78
2021/04/02 07:35:40;;;;;;;;;11.80;11.80;;;;;37.59;36.27;98152.53;6333738;22;8822;-79
2021/04/02 07:38:17;;;;;;;;;10.40;10.40;;;;;37.71;34.69;98159.81;6308052;22;9569;-78
2021/04/02 07:40:49;;;;;;;;;10.60;10.60;;;;;37.80;34.65;98155.06;6308068;22;8877;-78
2021/04/02 07:43:18;;;;;;;;;7.20;7.20;;;;;37.83;36.31;98162.38;6308803;22;8798;-79
2021/04/02 07:45:53;;;;;;;;;11.40;11.40;;;;;37.79;34.61;98150.78;6306745;22;8807;-78
2021/04/02 07:48:25;;;;;;;;;9.20;9.20;;;;;37.80;33.71;98137.78;6306887;22;8803;-77
2021/04/02 07:51:00;;;;;;;;;13.00;12.80;;;;;37.74;33.89;98134.13;6305485;22;8822;-76
2021/04/02 07:53:28;;;;;;;;;11.00;11.00;;;;;37.81;34.36;98126.28;6305872;22;8779;-76
2021/04/02 07:56:03;;;;;;;;;5.20;5.20;;;;;37.87;35.50;98124.44;6305528;22;8776;-78
2021/04/02 07:58:32;;;;;;;;;8.40;8.40;;;;;37.85;35.96;98124.13;6306571;22;9329;-76
2021/04/02 08:01:01;;;;;;;;;9.60;9.60;;;;;37.84;33.86;98119.09;6306063;22;8798;-77
2021/04/02 08:03:33;;;;;;;;;10.00;10.00;;;;;37.84;34.08;98111.59;6306231;22;8931;-78
2021/04/02 08:06:11;;;;;;;;;12.80;12.80;;;;;37.85;34.74;98110.38;6307171;22;8807;-77
2021/04/02 08:08:48;;;;;;;;;11.20;11.20;;;;;37.85;34.08;98104.88;6307036;22;8823;-79
2021/04/02 08:11:37;;;;;;;;;9.20;9.20;;;;;37.86;33.38;98108.38;6306570;22;8810;-79
2021/04/02 08:14:12;;;;;;;;;9.60;8.40;;;;;37.85;33.01;98095.84;6308412;22;8880;-78
2021/04/02 08:16:47;;;;;;;;;10.40;10.40;;;;;37.86;32.83;98091.88;6307899;22;8787;-79
2021/04/02 08:19:17;;;;;;;;;10.40;10.20;;;;;37.84;32.15;98072.28;6308162;22;8832;-78
2021/04/02 08:21:58;;;;;;;;;10.20;10.20;;;;;37.96;32.53;98076.06;6306630;22;8799;-76
2021/04/02 08:24:30;;;;;;;;;10.00;10.00;;;;;38.06;34.15;98072.78;6307455;22;8790;-78
2021/04/02 08:27:01;;;;;;;;;8.80;8.80;;;;;38.16;32.52;98063.25;6305197;22;8833;-76
2021/04/02 08:29:31;;;;;;;;;9.40;9.40;;;;;38.24;32.24;98065.66;6309638;22;8870;-78
2021/04/02 08:32:01;;;;;;;;;9.20;9.20;;;;;38.31;32.00;98052.28;6307137;22;8799;-79
2021/04/02 08:34:32;;;;;;;;;10.60;10.60;;;;;38.44;32.60;98057.56;6306204;22;8845;-77
2021/04/02 08:37:04;;;;;;;;;8.80;8.80;;;;;38.52;33.08;98058.72;6306566;22;8807;-78
2021/04/02 08:39:33;;;;;;;;;8.60;8.60;;;;;38.51;31.19;98051.69;6306881;22;8799;-80
2021/04/02 08:42:07;;;;;;;;;7.40;7.40;;;;;38.64;31.54;98056.97;6306911;22;8783;-78
2021/04/02 08:44:39;;;;;;;;;9.60;9.60;;;;;38.67;31.55;98054.03;6305151;22;8791;-77
2021/04/02 08:47:13;;;;;;;;;9.00;9.00;;;;;38.77;31.92;98052.72;6305321;22;8880;-78
2021/04/02 08:49:52;;;;;;;;;9.00;9.00;;;;;38.83;31.61;98056.31;6306172;22;8791;-78
2021/04/02 08:52:26;;;;;;;;;9.00;9.00;;;;;38.85;31.97;98047.59;6304945;22;9547;-77
2021/04/02 08:54:57;;;;;;;;;7.40;7.40;;;;;38.85;32.33;98055.84;6305154;22;8834;-77
2021/04/02 08:57:28;;;;;;;;;8.80;8.80;;;;;38.86;33.26;98060.13;6304514;22;8900;-77
2021/04/02 09:00:00;;;;;;;;;9.00;9.00;;;;;38.90;31.60;98060.72;6306510;22;8953;-77
2021/04/02 09:02:31;;;;;;;;;7.40;7.40;;;;;38.90;31.94;98054.44;6305403;22;8810;-77
2021/04/02 09:05:05;;;;;;;;;9.40;9.40;;;;;38.92;30.09;98058.25;6305171;22;9587;-77
2021/04/02 09:07:39;;;;;;;;;6.00;6.00;;;;;38.96;31.64;98069.09;6327280;22;8787;-72
2021/04/02 09:10:16;;;;;;;;;7.60;7.60;;;;;38.94;31.17;98061.28;6327687;22;8883;-76
2021/04/02 09:12:49;;;;;;;;;8.00;7.00;;;;;38.95;31.41;98059.28;6302403;22;9535;-73
2021/04/02 09:15:21;;;;;;;;;8.20;8.20;;;;;38.83;31.75;98058.31;6302200;22;8799;-75
2021/04/02 09:17:49;;;;;;;;;7.00;7.00;;;;;38.71;32.31;98059.34;6303937;22;8904;-76
2021/04/02 09:20:18;;;;;;;;;7.40;7.40;;;;;38.62;31.16;98065.72;6303899;22;8799;-76
2021/04/02 09:22:47;;;;;;;;;7.40;7.20;;;;;38.59;31.25;98061.13;6303279;22;8795;-77
2021/04/02 09:25:21;;;;;;;;;10.80;10.80;;;;;38.60;30.20;98062.66;6302456;22;8890;-76
2021/04/02 09:27:49;;;;;;;;;8.60;8.00;;;;;38.62;31.07;98073.22;6299734;22;8825;-74
2021/04/02 09:30:28;;;;;;;;;6.40;6.40;;;;;38.60;30.28;98076.44;6327069;22;8799;-77
2021/04/02 09:32:56;;;;;;;;;10.40;10.40;;;;;38.62;33.92;98071.22;6304603;22;8806;-77
2021/04/02 09:35:27;;;;;;;;;10.40;10.40;;;;;38.58;30.68;98067.09;6306626;22;8907;-77
2021/04/02 09:37:57;;;;;;;;;11.00;11.00;;;;;38.43;30.92;98045.00;6304453;22;8811;-77
2021/04/02 09:40:28;;;;;;;;;7.00;7.00;;;;;38.38;31.95;98042.91;6304025;22;8822;-76
2021/04/02 09:42:59;;;;;;;;;11.40;11.40;;;;;38.21;30.50;98025.28;6302383;22;8872;-77
2021/04/02 09:45:28;;;;;;;;;8.60;8.60;;;;;38.45;29.53;98064.59;6326622;22;8895;-75
2021/04/02 09:47:58;;;;;;;;;9.20;9.20;;;;;38.48;30.64;98069.91;6296761;22;8799;-77
2021/04/02 09:50:27;;;;;;;;;10.00;10.00;;;;;38.44;30.88;98074.09;6327081;22;8870;-77
2021/04/02 09:52:56;;;;;;;;;9.40;9.40;;;;;38.39;31.36;98083.00;6302039;22;8787;-79
2021/04/02 09:55:24;;;;;;;;;10.80;10.80;;;;;38.32;31.83;98086.13;6303420;22;8809;-78
2021/04/02 09:57:52;;;;;;;;;10.60;10.60;;;;;38.27;30.80;98076.50;6302309;22;8827;-77
2021/04/02 10:00:21;;;;;;;;;9.80;9.80;;;;;38.23;31.55;98088.94;6326752;22;9543;-78
2021/04/02 10:02:50;;;;;;;;;13.80;13.80;;;;;38.20;31.85;98087.88;6299814;22;8807;-77
2021/04/02 10:05:18;;;;;;;;;4.40;4.40;;;;;38.11;31.33;98074.13;6303306;22;8901;-78
2021/04/02 10:07:49;;;;;;;;;10.40;10.40;;;;;38.19;30.84;98078.84;6307087;22;8891;-78
2021/04/02 10:10:17;;;;;;;;;10.00;10.00;;;;;38.16;33.87;98076.28;6306081;22;8806;-78
2021/04/02 10:12:45;;;;;;;;;8.60;8.60;;;;;38.17;32.19;98081.31;6333226;22;9536;-76
2021/04/02 10:15:14;;;;;;;;;10.00;10.00;;;;;38.08;31.37;98081.34;6313442;22;8791;-78
2021/04/02 10:17:45;;;;;;;;;9.60;9.60;;;;;38.02;31.86;98082.44;6310270;22;8787;-79
2021/04/02 10:20:14;;;;;;;;;8.60;8.60;;;;;37.94;30.17;98073.78;6314097;22;8856;-78
2021/04/02 10:22:43;;;;;;;;;8.80;8.80;;;;;37.93;31.03;98077.00;6305689;22;8795;-78
2021/04/02 10:25:11;;;;;;;;;9.60;9.60;;;;;37.96;31.55;98078.81;6311929;22;8852;-79
2021/04/02 10:27:39;;;;;;;;;10.20;9.60;;;;;37.94;30.91;98082.03;6306239;22;8825;-78
2021/04/02 10:30:08;;;;;;;;;8.20;8.20;;;;;37.92;31.13;98087.25;6308067;22;9508;-78
2021/04/02 10:32:37;;;;;;;;;8.40;8.40;;;;;37.92;31.52;98080.97;6332292;22;8791;-77
2021/04/02 10:35:06;;;;;;;;;9.20;9.20;;;;;37.92;31.36;98097.50;6308875;22;8794;-77
2021/04/02 10:37:34;;;;;;;;;10.20;10.20;;;;;37.88;32.15;98097.66;6307395;22;8818;-77
2021/04/02 10:40:03;;;;;;;;;11.20;10.60;;;;;37.80;31.17;98100.00;6305965;22;8783;-78
2021/04/02 10:42:32;;;;;;;;;9.80;9.80;;;;;37.73;31.95;98105.84;6304895;22;8825;-78
2021/04/02 10:45:00;;;;;;;;;8.80;8.80;;;;;37.66;31.67;98108.91;6304747;22;8831;-78
2021/04/02 10:47:28;;;;;;;;;11.20;11.20;;;;;37.61;32.15;98108.78;6305112;22;9532;-77
2021/04/02 10:50:04;;;;;;;;;12.60;12.60;;;;;37.54;32.25;98112.63;6305074;22;8885;-77
2021/04/02 10:52:32;;;;;;;;;7.80;7.80;;;;;37.50;31.77;98117.53;6304225;22;8799;-76
2021/04/02 10:55:00;;;;;;;;;10.40;10.40;;;;;37.42;32.47;98119.09;6302432;22;8827;-76
2021/04/02 10:57:28;;;;;;;;;10.00;10.00;;;;;37.37;33.60;98134.22;6303125;22;9536;-76
2021/04/02 10:59:56;;;;;;;;;4.60;3.20;;;;;37.22;31.81;98122.34;6304790;22;8897;-78
2021/04/02 11:02:24;;;;;;;;;9.40;9.40;;;;;37.19;32.30;98139.72;6304911;22;8795;-76
2021/04/02 11:04:53;;;;;;;;;11.80;11.80;;;;;37.12;32.85;98143.56;6303085;22;9508;-77
2021/04/02 11:07:21;;;;;;;;;10.20;10.20;;;;;37.05;32.30;98148.59;6301115;22;8904;-76
2021/04/02 11:09:49;;;;;;;;;9.40;9.40;;;;;36.97;32.57;98159.16;6303853;22;9548;-76
2021/04/02 11:12:17;;;;;;;;;8.80;8.80;;;;;36.88;33.34;98165.41;6303550;22;8807;-76
2021/04/02 11:14:46;;;;;;;;;9.00;9.00;;;;;36.79;33.11;98164.63;6327715;22;8856;-76
2021/04/02 11:17:14;;;;;;;;;10.80;10.80;;;;;36.69;33.50;98172.09;6304702;22;8780;-76
2021/04/02 11:19:42;;;;;;;;;11.60;11.60;;;;;36.57;33.68;98173.75;6303975;22;8802;-76
2021/04/02 11:22:10;;;;;;;;;13.00;13.00;;;;;36.48;32.88;98179.22;6317403;22;8833;-76
2021/04/02 11:24:39;;;;;;;;;10.00;10.00;;;;;36.37;33.83;98178.16;6305420;22;9499;-76
2021/04/02 11:27:08;;;;;;;;;9.80;9.80;;;;;36.25;34.63;98182.50;6303957;22;8791;-76
2021/04/02 11:29:37;;;;;;;;;10.80;10.80;;;;;36.16;34.02;98187.97;6303595;22;8799;-75
2021/04/02 11:32:07;;;;;;;;;13.20;13.20;;;;;36.03;34.80;98190.81;6303158;22;9321;-75
2021/04/02 11:34:36;;;;;;;;;11.00;11.00;;;;;35.93;34.84;98192.00;6303825;22;8791;-76
2021/04/02 11:37:05;;;;;;;;;1.80;1.80;;;;;35.77;34.72;98194.94;6303459;22;8818;-76
2021/04/02 11:39:37;;;;;;;;;10.20;10.20;;;;;35.65;35.34;98188.31;6303644;22;8860;-76
2021/04/02 11:42:09;;;;;;;;;14.20;13.20;;;;;35.54;35.13;98190.69;6302299;22;8791;-76
2021/04/02 11:44:37;;;;;;;;;13.40;13.40;;;;;35.44;35.14;98189.84;6304956;22;8806;-75
2021/04/02 11:47:06;;;;;;;;;10.80;10.80;;;;;35.33;35.11;98192.22;6304841;22;8795;-77